Time;durP1;ratioP1;P1;durP2;ratioP2;P2;SDS_P1;SDS_P2;PMS_P1;PMS_P2;Temp;Humidity;BMP_temperature;BMP_pressure;BME280_temperature;BME280_humidity;BME280_pressure;Samples;Min_cycle;Max_cycle;Signal;HPM_P1;HPM_P2
2022/06/25 00:01:16;;;;;;;0.95;0.50;;;15.90;80.10;;;;;;5034585;28;20032;-78
2022/06/25 00:03:43;;;;;;;0.50;0.47;;;15.90;79.70;;;;;;5034713;28;20033;-78
2022/06/25 00:06:09;;;;;;;1.40;0.45;;;15.80;79.70;;;;;;5034509;28;20021;-78
2022/06/25 00:08:36;;;;;;;1.10;0.70;;;15.80;79.90;;;;;;5034486;28;20488;-77
2022/06/25 00:11:03;;;;;;;0.70;0.40;;;15.70;80.00;;;;;;5034510;28;20068;-78
2022/06/25 00:13:28;;;;;;;1.15;0.50;;;15.70;77.90;;;;;;5034548;28;20025;-78
2022/06/25 00:15:54;;;;;;;1.13;0.55;;;15.80;78.60;;;;;;5034474;28;20067;-78
2022/06/25 00:18:20;;;;;;;0.55;0.55;;;15.80;79.10;;;;;;5034391;28;20069;-78
2022/06/25 00:20:46;;;;;;;2.97;0.70;;;15.80;79.50;;;;;;5034314;28;20021;-78
2022/06/25 00:23:12;;;;;;;1.50;0.65;;;15.70;80.10;;;;;;5034271;28;20105;-77
2022/06/25 00:25:38;;;;;;;1.45;0.75;;;15.70;80.20;;;;;;5034264;28;20481;-78
2022/06/25 00:28:04;;;;;;;2.40;0.50;;;15.60;80.50;;;;;;5034173;28;20033;-78
2022/06/25 00:30:31;;;;;;;0.98;0.70;;;15.60;80.70;;;;;;5034164;28;20025;-78
2022/06/25 00:32:57;;;;;;;4.72;0.52;;;15.60;81.30;;;;;;5034228;28;20024;-78
2022/06/25 00:35:22;;;;;;;2.28;0.50;;;15.50;81.60;;;;;;5034691;28;20128;-78
2022/06/25 00:37:48;;;;;;;2.38;0.88;;;15.50;81.50;;;;;;5033987;28;20044;-78
2022/06/25 00:40:14;;;;;;;0.93;0.70;;;15.50;81.50;;;;;;5034105;28;20474;-79
2022/06/25 00:42:43;;;;;;;0.65;0.40;;;15.50;81.40;;;;;;5034389;28;20026;-78
2022/06/25 00:45:09;;;;;;;0.60;0.47;;;15.50;81.60;;;;;;5034995;28;20032;-79
2022/06/25 00:47:35;;;;;;;0.50;0.50;;;15.40;81.60;;;;;;5034756;28;20026;-78
2022/06/25 00:50:00;;;;;;;0.60;0.60;;;15.50;81.60;;;;;;5033649;28;20060;-78
2022/06/25 00:52:31;;;;;;;2.40;0.80;;;15.50;81.40;;;;;;5033717;28;20021;-78
2022/06/25 00:55:09;;;;;;;0.82;0.60;;;15.50;81.30;;;;;;5033713;28;20021;-79
2022/06/25 00:57:40;;;;;;;5.43;0.65;;;15.50;80.90;;;;;;5033666;28;20520;-80
2022/06/25 01:00:11;;;;;;;0.50;0.50;;;15.50;80.40;;;;;;5033559;28;20371;-78
2022/06/25 01:02:39;;;;;;;0.88;0.50;;;15.60;80.40;;;;;;5033493;28;20045;-78
2022/06/25 01:05:06;;;;;;;0.45;0.45;;;15.60;80.30;;;;;;5033526;28;20029;-77
2022/06/25 01:07:32;;;;;;;1.92;0.40;;;15.60;80.20;;;;;;5033529;28;20032;-77
2022/06/25 01:09:58;;;;;;;0.82;0.47;;;15.50;80.30;;;;;;5033408;28;20025;-80
2022/06/25 01:12:23;;;;;;;0.77;0.50;;;15.50;79.60;;;;;;5033476;28;20221;-80
2022/06/25 01:15:13;;;;;;;1.65;0.70;;;15.50;79.90;;;;;;5033370;28;20121;-80
2022/06/25 01:17:43;;;;;;;3.83;0.45;;;15.40;80.30;;;;;;5033347;28;20121;-80
2022/06/25 01:20:10;;;;;;;0.82;0.40;;;15.40;80.70;;;;;;5033236;28;20022;-80
2022/06/25 01:22:36;;;;;;;0.60;0.57;;;15.40;80.70;;;;;;5033440;28;20034;-79
2022/06/25 01:25:02;;;;;;;2.67;0.65;;;15.40;80.90;;;;;;5033238;28;20040;-79
2022/06/25 01:27:27;;;;;;;2.65;1.00;;;15.30;80.70;;;;;;5033136;28;20064;-80
2022/06/25 01:29:53;;;;;;;2.15;0.70;;;15.30;80.70;;;;;;5033162;28;20029;-80
2022/06/25 01:32:18;;;;;;;1.98;0.43;;;15.30;80.60;;;;;;5033267;28;20064;-79
2022/06/25 01:34:44;;;;;;;2.25;0.50;;;15.40;80.60;;;;;;5033071;28;20454;-79
2022/06/25 01:37:09;;;;;;;1.38;0.65;;;15.30;80.70;;;;;;5033062;28;20148;-80
2022/06/25 01:39:35;;;;;;;5.43;0.90;;;15.30;81.00;;;;;;5032573;28;20466;-79
2022/06/25 01:42:01;;;;;;;1.55;0.50;;;15.30;81.10;;;;;;5032924;28;20045;-80
2022/06/25 01:44:29;;;;;;;1.38;0.40;;;15.30;81.20;;;;;;5032986;28;20105;-80
2022/06/25 01:46:55;;;;;;;4.30;0.77;;;15.30;81.40;;;;;;5032996;28;20108;-80
2022/06/25 01:49:21;;;;;;;1.13;0.60;;;15.30;81.30;;;;;;5032837;28;20172;-79
2022/06/25 01:51:47;;;;;;;1.13;0.90;;;15.20;81.10;;;;;;5015306;28;20450;-79
2022/06/25 01:54:12;;;;;;;0.88;0.57;;;15.20;80.80;;;;;;5032854;28;20017;-78
2022/06/25 01:56:38;;;;;;;0.40;0.40;;;15.20;81.20;;;;;;5032791;28;20079;-78
2022/06/25 01:59:04;;;;;;;0.75;0.70;;;15.20;81.30;;;;;;5032785;28;20029;-79
2022/06/25 02:01:29;;;;;;;1.05;0.50;;;15.20;81.30;;;;;;5032835;28;20048;-79
2022/06/25 02:03:55;;;;;;;0.60;0.50;;;15.20;81.30;;;;;;5032789;28;20029;-79
2022/06/25 02:06:20;;;;;;;0.50;0.50;;;15.20;81.20;;;;;;5032718;28;20041;-79
2022/06/25 02:08:46;;;;;;;1.67;0.63;;;15.20;81.30;;;;;;5032759;28;20044;-78
2022/06/25 02:11:12;;;;;;;1.50;0.50;;;15.20;81.10;;;;;;5032675;28;20386;-78
2022/06/25 02:13:37;;;;;;;2.05;0.70;;;15.20;81.10;;;;;;5032599;28;20072;-79
2022/06/25 02:16:04;;;;;;;0.80;0.70;;;15.20;81.40;;;;;;5032705;28;20037;-79
2022/06/25 02:18:29;;;;;;;0.93;0.50;;;15.00;81.50;;;;;;5032562;28;20027;-79
2022/06/25 02:20:55;;;;;;;2.97;1.40;;;15.10;81.80;;;;;;5032548;28;20390;-79
2022/06/25 02:23:22;;;;;;;2.30;1.92;;;15.00;82.00;;;;;;5032528;28;20030;-78
2022/06/25 02:25:48;;;;;;;1.75;1.30;;;14.90;82.10;;;;;;5032556;28;20040;-79
2022/06/25 02:28:15;;;;;;;2.55;1.40;;;14.90;82.50;;;;;;5032534;28;20029;-78
2022/06/25 02:30:41;;;;;;;1.38;1.05;;;14.80;82.60;;;;;;5032526;28;20030;-79
2022/06/25 02:33:11;;;;;;;3.10;1.10;;;14.80;82.70;;;;;;5032549;28;20032;-79
2022/06/25 02:35:39;;;;;;;1.98;1.05;;;14.70;82.50;;;;;;5032462;28;20029;-79
2022/06/25 02:38:05;;;;;;;1.60;0.95;;;14.70;82.80;;;;;;5032443;28;20029;-79
2022/06/25 02:40:30;;;;;;;3.00;0.63;;;14.70;83.90;;;;;;5032501;28;20056;-79
2022/06/25 02:42:56;;;;;;;3.00;0.73;;;14.60;83.00;;;;;;5032387;28;20060;-79
2022/06/25 02:45:21;;;;;;;0.75;0.50;;;14.60;83.50;;;;;;5032405;28;20022;-79
2022/06/25 02:47:47;;;;;;;0.93;0.50;;;14.60;83.90;;;;;;5032379;28;20109;-79
2022/06/25 02:50:13;;;;;;;2.17;0.70;;;14.60;83.70;;;;;;5032350;28;20104;-79
2022/06/25 02:52:38;;;;;;;2.35;0.55;;;14.60;83.80;;;;;;5035876;28;20449;-79
2022/06/25 02:55:05;;;;;;;0.60;0.60;;;14.60;83.70;;;;;;5035826;28;20462;-79
2022/06/25 03:00:15;;;;;;;0.98;0.60;;;14.50;83.80;;;;;;5036080;28;20036;-79
2022/06/25 03:02:43;;;;;;;0.60;0.60;;;14.50;84.10;;;;;;5035713;28;20034;-79
2022/06/25 03:05:08;;;;;;;1.40;0.70;;;14.50;84.00;;;;;;5035711;28;20030;-79
2022/06/25 03:07:34;;;;;;;1.75;1.08;;;14.50;84.00;;;;;;5035660;28;20034;-79
2022/06/25 03:10:00;;;;;;;1.20;0.80;;;14.40;84.10;;;;;;5035680;28;20109;-79
2022/06/25 03:12:25;;;;;;;0.80;0.70;;;14.40;84.30;;;;;;5038712;28;20033;-79
2022/06/25 03:14:51;;;;;;;2.08;0.93;;;14.40;84.20;;;;;;5037657;28;20024;-79
2022/06/25 03:17:16;;;;;;;3.53;1.17;;;14.30;84.30;;;;;;5017864;28;20049;-79
2022/06/25 03:19:42;;;;;;;1.38;1.20;;;14.30;84.50;;;;;;5035455;28;20022;-78
2022/06/25 03:22:07;;;;;;;2.17;1.05;;;14.30;84.50;;;;;;5035410;28;20033;-79
2022/06/25 03:24:33;;;;;;;4.25;1.13;;;14.20;84.60;;;;;;5035362;28;20021;-79
2022/06/25 03:26:59;;;;;;;2.28;1.20;;;14.20;84.80;;;;;;5035303;28;20104;-78
2022/06/25 03:29:24;;;;;;;1.45;1.23;;;14.20;85.00;;;;;;5035183;28;20036;-78
2022/06/25 03:31:50;;;;;;;2.17;1.00;;;14.10;85.00;;;;;;5035395;28;20036;-78
2022/06/25 03:34:15;;;;;;;0.80;0.80;;;14.00;85.10;;;;;;5017455;28;20539;-78
2022/06/25 03:36:41;;;;;;;1.45;0.95;;;13.90;85.50;;;;;;5035196;28;20475;-79
2022/06/25 03:39:06;;;;;;;1.88;1.10;;;13.90;85.80;;;;;;5035071;28;20079;-78
2022/06/25 03:41:32;;;;;;;2.28;1.20;;;13.80;85.60;;;;;;5035037;28;20029;-79
2022/06/25 03:43:58;;;;;;;2.38;1.35;;;13.80;85.70;;;;;;5035099;28;20033;-79
2022/06/25 03:46:24;;;;;;;6.40;1.25;;;13.80;85.70;;;;;;5034863;28;20663;-79
2022/06/25 03:48:49;;;;;;;1.83;1.60;;;13.70;86.10;;;;;;5034866;28;20067;-79
2022/06/25 03:51:15;;;;;;;2.70;1.80;;;13.70;86.30;;;;;;5034718;28;20049;-78
2022/06/25 03:53:40;;;;;;;4.75;2.20;;;13.70;86.30;;;;;;5034853;28;20025;-79
2022/06/25 03:56:07;;;;;;;4.07;2.10;;;13.70;86.20;;;;;;5034792;28;20056;-79
2022/06/25 03:58:32;;;;;;;9.65;2.70;;;13.60;86.40;;;;;;5034922;28;20029;-78
2022/06/25 04:00:58;;;;;;;3.63;2.17;;;13.50;86.70;;;;;;5016715;28;20037;-78
2022/06/25 04:03:23;;;;;;;4.10;2.05;;;13.50;86.90;;;;;;5034503;28;20057;-78
2022/06/25 04:05:49;;;;;;;4.60;2.00;;;13.50;86.80;;;;;;5034673;28;20037;-79
2022/06/25 04:08:15;;;;;;;3.75;1.92;;;13.50;87.00;;;;;;5034532;28;20026;-79
2022/06/25 04:10:42;;;;;;;2.80;1.70;;;13.60;87.10;;;;;;5034722;28;20155;-78
2022/06/25 04:13:08;;;;;;;4.18;1.77;;;13.60;86.80;;;;;;5034525;28;20481;-78
2022/06/25 04:15:33;;;;;;;8.55;2.00;;;13.70;86.40;;;;;;5034499;28;20026;-79
2022/06/25 04:17:59;;;;;;;1.83;1.60;;;13.70;86.00;;;;;;5034483;28;20550;-79
2022/06/25 04:20:24;;;;;;;2.38;1.67;;;13.80;86.00;;;;;;5016545;28;20441;-79
2022/06/25 04:22:50;;;;;;;2.70;1.73;;;13.80;85.70;;;;;;5034309;28;20037;-79
2022/06/25 04:25:15;;;;;;;4.05;1.30;;;13.90;85.70;;;;;;5034293;28;20029;-79
2022/06/25 04:30:25;;;;;;;3.05;1.17;;;14.10;84.80;;;;;;5034271;28;20091;-78
2022/06/25 04:32:51;;;;;;;3.85;1.45;;;14.10;84.60;;;;;;5034295;28;20030;-78
2022/06/25 04:35:16;;;;;;;1.50;1.40;;;14.10;84.80;;;;;;5016429;28;20040;-79
2022/06/25 04:37:42;;;;;;;2.10;1.67;;;14.00;84.90;;;;;;5034005;28;20076;-78
2022/06/25 04:40:08;;;;;;;3.22;1.75;;;14.10;84.60;;;;;;5034048;28;20037;-79
2022/06/25 04:42:33;;;;;;;2.83;1.52;;;14.10;84.50;;;;;;5016158;28;20035;-79
2022/06/25 04:44:59;;;;;;;2.65;1.70;;;14.20;84.60;;;;;;5033912;28;20104;-79
2022/06/25 04:47:24;;;;;;;3.03;1.40;;;14.20;84.30;;;;;;5033748;28;20061;-79
2022/06/25 04:49:51;;;;;;;5.00;2.03;;;14.30;84.30;;;;;;5033588;28;20041;-79
2022/06/25 04:52:17;;;;;;;1.67;1.30;;;14.30;84.00;;;;;;5033797;28;20052;-79
2022/06/25 04:54:42;;;;;;;3.17;1.30;;;14.40;83.70;;;;;;5015955;28;20021;-79
2022/06/25 04:57:08;;;;;;;3.05;1.27;;;14.60;83.70;;;;;;5033589;28;20021;-80
2022/06/25 04:59:33;;;;;;;1.77;1.38;;;14.70;83.40;;;;;;5033582;28;20036;-80
2022/06/25 05:01:59;;;;;;;1.35;1.10;;;14.80;82.70;;;;;;5033472;28;20025;-79
2022/06/25 05:04:25;;;;;;;4.10;1.20;;;14.80;83.00;;;;;;5033599;28;20470;-80
2022/06/25 05:06:51;;;;;;;2.38;1.05;;;14.90;82.50;;;;;;5033582;28;20022;-80
2022/06/25 05:09:16;;;;;;;1.48;1.25;;;14.90;82.50;;;;;;5033474;28;20507;-80
2022/06/25 05:11:43;;;;;;;3.58;1.10;;;15.00;82.30;;;;;;5015692;28;20025;-79
2022/06/25 05:14:09;;;;;;;2.40;1.50;;;15.10;82.40;;;;;;5032645;28;20474;-79
2022/06/25 05:16:34;;;;;;;1.77;1.20;;;15.20;82.10;;;;;;5033192;28;20107;-79
2022/06/25 05:19:00;;;;;;;1.00;0.90;;;15.40;81.60;;;;;;5033276;28;20615;-79
2022/06/25 05:21:26;;;;;;;2.25;1.00;;;15.40;81.30;;;;;;5033047;28;20025;-79
2022/06/25 05:23:51;;;;;;;2.78;1.10;;;15.50;81.30;;;;;;5033499;28;20068;-79
2022/06/25 05:26:17;;;;;;;1.52;1.13;;;15.60;81.00;;;;;;5033261;28;20022;-80
2022/06/25 05:28:43;;;;;;;1.20;1.10;;;15.70;80.70;;;;;;5033178;28;20028;-79
2022/06/25 05:31:08;;;;;;;1.23;0.90;;;15.90;80.50;;;;;;5033022;28;20299;-79
2022/06/25 05:33:35;;;;;;;1.40;0.70;;;16.00;80.00;;;;;;5033010;28;20141;-80
2022/06/25 05:36:01;;;;;;;1.25;0.90;;;16.20;79.60;;;;;;5032504;28;20064;-80
2022/06/25 05:38:26;;;;;;;1.17;0.93;;;16.20;79.00;;;;;;5032967;28;20044;-79
2022/06/25 05:40:52;;;;;;;1.67;0.82;;;16.30;79.10;;;;;;5032972;28;20044;-79
2022/06/25 05:43:17;;;;;;;2.17;0.88;;;16.40;78.70;;;;;;5014939;28;20061;-79
2022/06/25 05:45:43;;;;;;;3.33;1.00;;;16.50;78.40;;;;;;5032769;28;20017;-79
2022/06/25 05:48:08;;;;;;;0.75;0.70;;;16.60;78.60;;;;;;5032404;28;20026;-79
2022/06/25 05:50:35;;;;;;;3.05;0.70;;;16.70;78.40;;;;;;5032348;28;20053;-79
2022/06/25 05:53:01;;;;;;;1.00;0.80;;;16.80;77.80;;;;;;5032517;28;20030;-76
2022/06/25 05:55:26;;;;;;;1.45;0.80;;;17.00;77.30;;;;;;5032512;28;20029;-79
2022/06/25 05:57:52;;;;;;;1.48;0.60;;;17.10;77.00;;;;;;5032541;28;20168;-80
2022/06/25 06:00:18;;;;;;;1.73;0.60;;;17.20;77.00;;;;;;5032198;28;20413;-80
2022/06/25 06:02:44;;;;;;;0.70;0.60;;;17.40;76.20;;;;;;5032027;28;20053;-79
2022/06/25 06:05:10;;;;;;;1.38;0.82;;;17.50;75.40;;;;;;5032206;28;20548;-79
2022/06/25 06:07:35;;;;;;;2.38;0.63;;;17.60;74.80;;;;;;5032420;28;20036;-79
2022/06/25 06:10:01;;;;;;;1.05;0.60;;;17.50;74.80;;;;;;5032244;28;20030;-79
2022/06/25 06:12:27;;;;;;;1.20;0.50;;;17.60;74.70;;;;;;5014372;28;20060;-79
2022/06/25 06:14:53;;;;;;;1.15;0.80;;;17.60;74.30;;;;;;5032224;28;20033;-79
2022/06/25 06:17:18;;;;;;;0.60;0.60;;;17.60;74.50;;;;;;5032090;28;20030;-79
2022/06/25 06:19:44;;;;;;;1.55;0.60;;;17.50;74.90;;;;;;5032252;28;20105;-79
2022/06/25 06:22:09;;;;;;;1.27;0.82;;;17.60;75.10;;;;;;5032087;28;20532;-80
2022/06/25 06:24:35;;;;;;;1.33;0.60;;;17.60;74.80;;;;;;5032978;28;20100;-79
2022/06/25 06:27:01;;;;;;;0.95;0.70;;;17.60;74.60;;;;;;5036019;28;20025;-79
2022/06/25 06:29:28;;;;;;;1.50;0.60;;;17.60;74.10;;;;;;5035933;28;20448;-79
2022/06/25 06:31:53;;;;;;;0.45;0.45;;;17.70;74.30;;;;;;5035802;28;20033;-79
2022/06/25 06:34:19;;;;;;;1.20;0.80;;;17.90;73.90;;;;;;5035679;28;20521;-78
2022/06/25 06:36:45;;;;;;;0.75;0.73;;;17.90;73.40;;;;;;5035460;28;20026;-79
2022/06/25 06:39:11;;;;;;;0.85;0.65;;;18.00;73.20;;;;;;5035705;28;20018;-79
2022/06/25 06:41:36;;;;;;;1.38;0.68;;;18.10;73.10;;;;;;5035235;28;20022;-79
2022/06/25 06:44:02;;;;;;;0.98;0.80;;;18.20;72.90;;;;;;5035348;28;20029;-79
2022/06/25 06:46:28;;;;;;;1.40;1.00;;;18.20;72.70;;;;;;5035527;28;20018;-80
2022/06/25 06:48:54;;;;;;;2.83;0.73;;;18.40;72.50;;;;;;5035334;28;20031;-80
2022/06/25 06:51:19;;;;;;;0.82;0.82;;;18.40;72.20;;;;;;5037317;28;20124;-79
2022/06/25 06:53:45;;;;;;;1.67;0.95;;;18.50;71.50;;;;;;5018317;28;20021;-79
2022/06/25 06:56:10;;;;;;;1.02;0.70;;;18.50;71.40;;;;;;5035640;28;20097;-78
2022/06/25 06:58:37;;;;;;;0.68;0.68;;;18.60;71.40;;;;;;5017522;28;20112;-80
2022/06/25 07:01:03;;;;;;;1.48;0.63;;;18.70;70.80;;;;;;5035510;28;20022;-79
2022/06/25 07:03:28;;;;;;;1.83;0.63;;;18.80;70.40;;;;;;5035203;28;20038;-80
2022/06/25 07:05:54;;;;;;;0.40;0.40;;;18.90;68.90;;;;;;5035198;28;20466;-81
2022/06/25 07:08:20;;;;;;;1.98;0.80;;;19.00;68.40;;;;;;5035119;28;20021;-80
2022/06/25 07:10:46;;;;;;;1.15;0.75;;;19.10;68.40;;;;;;5035320;28;20025;-80
2022/06/25 07:13:11;;;;;;;3.05;1.00;;;19.20;67.90;;;;;;5034935;28;20022;-80
2022/06/25 07:15:37;;;;;;;2.83;0.88;;;19.20;67.60;;;;;;5034972;28;20501;-80
2022/06/25 07:18:02;;;;;;;1.08;0.70;;;19.30;68.10;;;;;;5034874;28;20041;-81
2022/06/25 07:20:28;;;;;;;1.00;0.70;;;19.40;68.50;;;;;;5034985;28;20017;-81
2022/06/25 07:22:53;;;;;;;0.90;0.60;;;19.60;68.40;;;;;;5034814;28;20049;-80
2022/06/25 07:25:19;;;;;;;1.02;0.60;;;19.70;67.80;;;;;;5034737;28;20021;-80
2022/06/25 07:27:46;;;;;;;3.15;0.98;;;19.90;66.80;;;;;;5034449;28;20034;-80
2022/06/25 07:30:13;;;;;;;1.55;0.60;;;20.00;65.60;;;;;;5034722;28;20052;-80
2022/06/25 07:32:38;;;;;;;2.17;0.95;;;20.10;64.90;;;;;;5034919;28;20029;-80
2022/06/25 07:35:04;;;;;;;0.85;0.65;;;20.20;63.50;;;;;;5034644;28;20466;-80
2022/06/25 07:37:30;;;;;;;1.42;0.65;;;20.30;64.40;;;;;;5033629;28;20052;-80
2022/06/25 07:39:55;;;;;;;0.93;0.80;;;20.40;62.30;;;;;;5034538;28;20330;-80
2022/06/25 07:42:21;;;;;;;1.45;0.90;;;20.50;62.10;;;;;;5034261;28;20546;-80
2022/06/25 07:44:46;;;;;;;0.77;0.50;;;20.60;62.50;;;;;;5034096;28;20026;-81
2022/06/25 07:47:12;;;;;;;1.08;0.90;;;20.80;62.10;;;;;;5034043;28;20028;-80
2022/06/25 07:52:22;;;;;;;3.25;1.00;;;21.00;61.10;;;;;;5034416;28;20037;-81
2022/06/25 07:54:48;;;;;;;2.55;1.10;;;21.10;60.20;;;;;;5034004;28;20017;-81
2022/06/25 07:57:14;;;;;;;2.97;0.90;;;21.10;61.20;;;;;;5033971;28;20104;-80
2022/06/25 07:59:39;;;;;;;3.20;1.10;;;21.10;60.50;;;;;;5034149;28;20029;-80
2022/06/25 08:02:05;;;;;;;1.90;1.00;;;21.10;58.50;;;;;;5016008;28;20073;-81
2022/06/25 08:04:30;;;;;;;3.95;1.00;;;21.00;58.40;;;;;;5033819;28;20037;-80
2022/06/25 08:06:56;;;;;;;1.33;1.13;;;21.10;59.70;;;;;;5033704;28;20032;-80
2022/06/25 08:09:22;;;;;;;1.95;1.20;;;21.10;59.60;;;;;;5034631;28;20454;-80
2022/06/25 08:11:48;;;;;;;4.15;1.50;;;21.30;60.60;;;;;;5034172;28;20033;-81
2022/06/25 08:14:14;;;;;;;1.42;0.85;;;21.50;60.70;;;;;;5034087;28;20030;-80
2022/06/25 08:16:40;;;;;;;1.17;0.80;;;21.60;61.10;;;;;;5034293;28;20025;-81
2022/06/25 08:19:05;;;;;;;1.60;0.73;;;21.80;60.10;;;;;;5016390;28;20056;-80
2022/06/25 08:21:31;;;;;;;3.88;0.90;;;21.90;59.50;;;;;;5034046;28;20026;-80
2022/06/25 08:23:57;;;;;;;1.80;0.95;;;21.90;59.10;;;;;;5033829;28;20037;-80
2022/06/25 08:26:23;;;;;;;2.55;0.93;;;21.90;58.70;;;;;;5033928;28;20025;-81
2022/06/25 08:28:49;;;;;;;3.63;1.70;;;21.80;59.10;;;;;;5033961;28;20031;-81
2022/06/25 08:31:14;;;;;;;2.10;0.88;;;21.80;60.30;;;;;;5033855;28;20030;-80
2022/06/25 08:33:40;;;;;;;1.67;1.05;;;21.90;60.30;;;;;;5033885;28;20079;-80
2022/06/25 08:36:06;;;;;;;3.22;1.20;;;22.00;57.60;;;;;;5034012;28;20018;-80
2022/06/25 08:38:31;;;;;;;4.55;1.00;;;22.10;58.30;;;;;;5033842;28;20032;-80
2022/06/25 08:40:58;;;;;;;2.75;0.90;;;22.20;56.10;;;;;;5034047;28;20029;-80
2022/06/25 08:43:24;;;;;;;0.80;0.68;;;22.20;51.50;;;;;;5033961;28;20037;-80
2022/06/25 08:45:50;;;;;;;1.02;0.80;;;22.10;53.50;;;;;;5042188;28;20016;-78
2022/06/25 08:48:20;;;;;;;2.03;1.00;;;22.20;53.40;;;;;;5051657;28;20116;-80
2022/06/25 08:50:48;;;;;;;0.90;0.90;;;22.30;52.90;;;;;;5038669;28;20053;-80
2022/06/25 08:53:14;;;;;;;2.13;1.05;;;22.30;52.80;;;;;;5033792;28;20486;-80
2022/06/25 08:55:41;;;;;;;4.40;1.02;;;22.40;53.20;;;;;;5034164;28;20026;-80
2022/06/25 08:58:08;;;;;;;3.60;1.05;;;22.50;53.10;;;;;;5033733;28;20014;-80
2022/06/25 09:00:37;;;;;;;1.20;0.73;;;22.60;52.50;;;;;;5033382;28;20040;-79
2022/06/25 09:03:06;;;;;;;2.35;1.30;;;22.40;51.60;;;;;;5033209;28;20029;-79
2022/06/25 09:05:37;;;;;;;0.73;0.68;;;22.40;52.40;;;;;;5033233;28;20063;-80
2022/06/25 09:08:06;;;;;;;3.53;1.00;;;22.30;52.60;;;;;;5032935;28;20039;-79
2022/06/25 09:10:33;;;;;;;1.58;0.95;;;22.30;53.00;;;;;;5033097;28;20063;-79
2022/06/25 09:13:04;;;;;;;4.53;1.02;;;22.30;54.90;;;;;;5015185;28;20425;-80
2022/06/25 09:15:37;;;;;;;0.65;0.65;;;22.50;53.50;;;;;;5033071;28;20026;-80
2022/06/25 09:18:14;;;;;;;1.55;1.00;;;22.60;52.00;;;;;;5032898;28;20026;-80
2022/06/25 09:20:58;;;;;;;2.65;1.10;;;22.60;51.00;;;;;;5032630;28;20029;-80
2022/06/25 09:23:25;;;;;;;1.42;0.93;;;22.40;51.20;;;;;;5032791;28;20534;-80
2022/06/25 09:26:05;;;;;;;4.82;0.80;;;22.50;51.10;;;;;;5032984;28;20024;-79
2022/06/25 09:28:44;;;;;;;2.65;0.93;;;22.50;51.70;;;;;;5033573;28;20033;-80
2022/06/25 09:31:09;;;;;;;1.70;0.70;;;22.50;50.50;;;;;;5032833;28;20021;-79
2022/06/25 09:33:37;;;;;;;1.95;1.00;;;22.40;50.90;;;;;;5032604;28;20024;-79
2022/06/25 09:36:03;;;;;;;2.05;0.80;;;22.40;52.10;;;;;;5032821;28;20040;-80
2022/06/25 09:38:31;;;;;;;1.58;0.90;;;22.60;51.50;;;;;;5032331;28;20096;-79
2022/06/25 09:40:59;;;;;;;4.57;1.27;;;22.80;52.20;;;;;;5032637;28;20104;-80
2022/06/25 09:43:36;;;;;;;1.42;0.88;;;22.90;51.90;;;;;;5032404;28;20037;-79
2022/06/25 09:46:03;;;;;;;1.52;0.90;;;22.80;49.10;;;;;;5032593;28;20109;-79
2022/06/25 09:48:31;;;;;;;1.33;0.75;;;22.70;48.70;;;;;;5014607;28;20025;-80
2022/06/25 09:51:05;;;;;;;2.92;0.95;;;22.80;48.00;;;;;;5032381;28;20432;-79
2022/06/25 09:53:32;;;;;;;1.95;0.60;;;22.80;48.50;;;;;;5032446;28;20064;-80
2022/06/25 09:55:59;;;;;;;2.15;0.75;;;22.90;48.10;;;;;;5032285;28;20091;-80
2022/06/25 09:58:26;;;;;;;1.08;0.70;;;23.00;49.90;;;;;;5032465;28;20506;-80
2022/06/25 10:00:53;;;;;;;2.17;0.80;;;23.00;48.10;;;;;;5035180;28;20210;-81
2022/06/25 10:03:21;;;;;;;1.90;0.75;;;23.10;49.10;;;;;;5036375;28;20100;-79
2022/06/25 10:05:47;;;;;;;4.35;0.70;;;23.40;48.50;;;;;;5036495;28;20026;-79
2022/06/25 10:08:15;;;;;;;2.90;0.80;;;23.40;46.80;;;;;;5036410;28;20033;-79
2022/06/25 10:10:44;;;;;;;2.85;0.80;;;23.50;47.60;;;;;;5037583;28;20034;-80
2022/06/25 10:13:10;;;;;;;3.28;0.73;;;23.50;46.50;;;;;;5036618;28;20029;-80
2022/06/25 10:15:37;;;;;;;1.10;0.80;;;23.40;46.90;;;;;;5036525;28;20021;-80
2022/06/25 10:18:04;;;;;;;2.03;0.90;;;23.40;46.00;;;;;;5036402;28;20026;-80
2022/06/25 10:20:31;;;;;;;1.73;0.80;;;23.60;47.60;;;;;;5036370;28;20026;-80
2022/06/25 10:22:59;;;;;;;2.85;0.75;;;23.70;46.90;;;;;;5036145;28;20052;-80
2022/06/25 10:25:26;;;;;;;1.80;0.90;;;23.70;46.80;;;;;;5036177;28;20108;-80
2022/06/25 10:28:06;;;;;;;1.25;0.70;;;23.90;46.70;;;;;;5036115;28;20086;-80
2022/06/25 10:30:45;;;;;;;0.95;0.70;;;23.90;46.00;;;;;;5036151;28;20021;-80
2022/06/25 10:33:15;;;;;;;1.27;0.77;;;23.70;45.80;;;;;;5035751;28;20025;-80
2022/06/25 10:35:42;;;;;;;2.90;0.68;;;23.70;45.10;;;;;;5036155;28;20416;-80
2022/06/25 10:38:16;;;;;;;1.45;0.60;;;23.80;46.70;;;;;;5018276;28;20505;-80
2022/06/25 10:40:58;;;;;;;1.02;0.82;;;23.90;45.00;;;;;;5035715;28;20021;-80
2022/06/25 10:43:45;;;;;;;1.30;0.90;;;24.10;44.90;;;;;;5035804;28;20041;-80
2022/06/25 10:46:29;;;;;;;1.05;0.70;;;24.20;47.40;;;;;;5035887;28;20017;-80
2022/06/25 10:49:10;;;;;;;2.17;0.70;;;24.30;43.40;;;;;;5035835;28;20021;-80
2022/06/25 10:51:38;;;;;;;1.17;0.70;;;24.40;43.30;;;;;;5035686;28;20064;-80
2022/06/25 10:54:34;;;;;;;0.90;0.73;;;24.40;44.60;;;;;;5035729;28;20025;-79
2022/06/25 10:57:00;;;;;;;1.48;0.85;;;24.60;43.50;;;;;;5035626;28;20038;-80
2022/06/25 10:59:32;;;;;;;1.92;0.95;;;24.80;45.00;;;;;;5035744;28;20033;-80
2022/06/25 11:01:59;;;;;;;0.82;0.52;;;25.10;44.90;;;;;;5035618;28;20485;-81
2022/06/25 11:04:28;;;;;;;1.63;0.77;;;25.00;42.20;;;;;;5035290;28;20065;-80
2022/06/25 11:07:18;;;;;;;2.22;0.70;;;25.10;43.70;;;;;;5035522;28;20485;-80
2022/06/25 11:10:00;;;;;;;0.95;0.35;;;25.50;41.70;;;;;;5035565;28;20021;-80
2022/06/25 11:12:28;;;;;;;0.40;0.40;;;25.70;38.00;;;;;;5034496;28;20022;-80
2022/06/25 11:15:07;;;;;;;1.08;0.70;;;25.80;39.30;;;;;;5035637;28;20022;-80
2022/06/25 11:17:33;;;;;;;1.42;0.70;;;25.90;38.80;;;;;;5035607;28;20474;-80
2022/06/25 11:20:10;;;;;;;1.05;0.60;;;25.80;37.50;;;;;;5035310;28;20543;-80
2022/06/25 11:22:51;;;;;;;0.75;0.63;;;25.80;39.60;;;;;;5043624;28;20056;-79
2022/06/25 11:30:50;;;;;;;0.60;0.40;;;26.60;38.40;;;;;;5035655;28;20080;-80
2022/06/25 11:33:16;;;;;;;1.00;0.52;;;26.70;35.90;;;;;;5018117;28;20025;-80
2022/06/25 11:35:44;;;;;;;1.38;0.57;;;26.70;36.50;;;;;;5035743;28;20033;-81
2022/06/25 11:38:17;;;;;;;1.35;0.50;;;26.40;37.40;;;;;;5035390;28;20017;-81
2022/06/25 11:40:42;;;;;;;5.65;0.77;;;26.50;35.70;;;;;;5035097;28;20136;-81
2022/06/25 11:43:09;;;;;;;0.40;0.40;;;26.60;36.90;;;;;;5035071;28;20073;-81
2022/06/25 11:45:57;;;;;;;1.65;0.60;;;26.50;36.60;;;;;;5034868;28;20040;-81
2022/06/25 11:48:26;;;;;;;1.08;0.45;;;26.40;36.50;;;;;;5034858;28;20068;-80
2022/06/25 11:50:58;;;;;;;3.13;0.55;;;26.50;38.00;;;;;;5034850;28;20087;-81
2022/06/25 11:53:23;;;;;;;0.90;0.50;;;26.60;37.10;;;;;;5034911;28;20083;-80
2022/06/25 11:55:59;;;;;;;1.20;0.50;;;26.60;36.80;;;;;;5034863;28;20385;-81
2022/06/25 11:58:26;;;;;;;0.88;0.47;;;26.40;35.90;;;;;;5034527;28;20052;-80
2022/06/25 12:00:57;;;;;;;1.30;0.40;;;26.50;36.90;;;;;;5034549;28;20050;-81
2022/06/25 12:03:24;;;;;;;1.50;0.50;;;26.80;36.80;;;;;;5034452;28;20033;-81
2022/06/25 12:05:50;;;;;;;1.50;0.40;;;27.10;36.30;;;;;;5034519;28;20021;-81
2022/06/25 12:08:16;;;;;;;1.20;0.38;;;27.20;34.30;;;;;;5034363;28;20025;-81
2022/06/25 12:10:43;;;;;;;2.05;0.40;;;26.90;34.30;;;;;;5034460;28;20449;-81
2022/06/25 12:13:09;;;;;;;0.80;0.30;;;27.00;34.80;;;;;;5034603;28;20421;-81
2022/06/25 12:15:35;;;;;;;0.30;0.30;;;27.30;35.30;;;;;;5034050;28;20025;-81
2022/06/25 12:18:05;;;;;;;0.32;0.30;;;27.50;35.90;;;;;;5034070;28;20108;-81
2022/06/25 12:20:31;;;;;;;2.15;0.50;;;27.70;36.20;;;;;;5034262;28;20026;-81
2022/06/25 12:22:58;;;;;;;0.50;0.40;;;27.70;33.80;;;;;;5033871;28;20037;-81
2022/06/25 12:25:32;;;;;;;0.50;0.50;;;27.80;35.30;;;;;;5034121;28;20017;-81
2022/06/25 12:27:58;;;;;;;1.42;0.60;;;28.10;35.70;;;;;;5034159;28;20466;-81
2022/06/25 12:30:29;;;;;;;1.25;0.40;;;28.20;35.20;;;;;;5034017;28;20026;-81
2022/06/25 12:33:02;;;;;;;1.60;0.60;;;28.00;33.50;;;;;;5037588;28;20041;-80
2022/06/25 12:35:30;;;;;;;0.85;0.50;;;28.10;33.80;;;;;;5034891;28;20029;-80
2022/06/25 12:38:07;;;;;;;2.30;0.40;;;28.40;34.20;;;;;;5034033;28;20429;-79
2022/06/25 12:40:38;;;;;;;0.40;0.40;;;28.50;31.20;;;;;;5033930;28;20088;-79
2022/06/25 12:43:06;;;;;;;3.13;0.43;;;28.40;31.80;;;;;;5034011;28;20029;-79
2022/06/25 12:45:32;;;;;;;0.50;0.40;;;28.30;31.10;;;;;;5033974;28;20017;-79
2022/06/25 12:47:58;;;;;;;1.42;0.40;;;28.10;32.10;;;;;;5033833;28;20475;-82
2022/06/25 12:50:29;;;;;;;0.40;0.40;;;28.00;33.40;;;;;;5033429;28;20045;-80
2022/06/25 12:52:55;;;;;;;0.85;0.38;;;28.20;32.80;;;;;;5033609;28;20026;-81
2022/06/25 12:55:23;;;;;;;0.30;0.30;;;28.40;32.10;;;;;;5033396;28;20036;-81
2022/06/25 12:57:49;;;;;;;1.27;0.30;;;28.60;32.40;;;;;;5033293;28;20030;-81
2022/06/25 13:00:25;;;;;;;0.90;0.40;;;28.80;30.50;;;;;;5033416;28;20033;-80
2022/06/25 13:02:51;;;;;;;1.55;0.50;;;29.00;30.80;;;;;;5033303;28;20036;-80